Time;durP1;ratioP1;P1;durP2;ratioP2;P2;SDS_P1;SDS_P2;PMS_P1;PMS_P2;Temp;Humidity;BMP_temperature;BMP_pressure;BME280_temperature;BME280_humidity;BME280_pressure;Samples;Min_cycle;Max_cycle;Signal;HPM_P1;HPM_P2
2023/04/18 00:02:15;;;;;;;13.63;7.28;;;8.10;99.90;;;;;;5111554;28;20035;-80
2023/04/18 00:04:44;;;;;;;13.40;7.70;;;8.00;99.90;;;;;;5111882;28;20122;-80
2023/04/18 00:07:13;;;;;;;12.30;7.32;;;8.00;99.90;;;;;;5111930;28;20027;-80
2023/04/18 00:09:40;;;;;;;13.90;8.43;;;8.00;99.90;;;;;;5094776;28;20476;-81
2023/04/18 00:12:06;;;;;;;12.63;7.13;;;8.00;99.90;;;;;;5110808;28;20160;-80
2023/04/18 00:14:33;;;;;;;15.18;7.72;;;7.90;99.90;;;;;;5110423;28;20032;-80
2023/04/18 00:17:01;;;;;;;10.27;6.38;;;7.90;99.90;;;;;;5110460;28;20114;-80
2023/04/18 00:19:27;;;;;;;11.95;7.07;;;7.90;99.90;;;;;;5093714;28;20044;-80
2023/04/18 00:21:52;;;;;;;14.23;7.53;;;7.80;99.90;;;;;;5110651;28;20047;-81
2023/04/18 00:24:19;;;;;;;11.73;6.75;;;7.80;99.90;;;;;;5110064;28;20099;-80
2023/04/18 00:26:44;;;;;;;11.27;7.32;;;7.70;99.90;;;;;;5093418;28;20097;-80
2023/04/18 00:29:10;;;;;;;11.30;6.72;;;7.70;99.90;;;;;;5093734;28;20059;-80
2023/04/18 00:31:36;;;;;;;9.63;6.15;;;7.70;99.90;;;;;;5110960;28;20415;-80
2023/04/18 00:34:02;;;;;;;12.02;6.68;;;7.70;99.90;;;;;;5093813;28;20035;-80
2023/04/18 00:36:28;;;;;;;13.98;6.10;;;7.70;99.90;;;;;;5110368;28;20050;-81
2023/04/18 00:38:53;;;;;;;9.67;6.20;;;7.70;99.90;;;;;;5110394;28;20487;-80
2023/04/18 00:41:21;;;;;;;11.82;6.38;;;7.70;99.90;;;;;;5110420;28;20121;-80
2023/04/18 00:43:47;;;;;;;13.30;6.90;;;7.70;99.90;;;;;;5110285;28;20040;-81
2023/04/18 00:46:12;;;;;;;14.07;6.43;;;7.60;99.90;;;;;;5093185;28;20406;-80
2023/04/18 00:48:38;;;;;;;12.80;6.80;;;7.60;99.90;;;;;;5093251;28;21076;-80
2023/04/18 00:51:08;;;;;;;11.85;6.80;;;7.60;99.90;;;;;;5110424;28;20289;-81
2023/04/18 00:53:35;;;;;;;14.18;7.72;;;7.50;99.90;;;;;;5110181;28;20523;-80
2023/04/18 00:56:01;;;;;;;;;;;7.50;99.90;;;;;;5110814;28;20130;-80
2023/04/18 00:58:27;;;;;;;12.90;7.35;;;7.50;99.90;;;;;;5110280;28;19955;-80
2023/04/18 01:00:53;;;;;;;12.70;7.50;;;7.50;99.90;;;;;;5110323;28;20516;-80
2023/04/18 01:03:21;;;;;;;13.60;8.27;;;7.50;99.90;;;;;;5076315;28;20040;-80
2023/04/18 01:05:47;;;;;;;13.02;7.07;;;7.40;99.90;;;;;;5093400;28;20483;-80
2023/04/18 01:08:13;;;;;;;11.73;7.10;;;7.40;99.90;;;;;;5109683;28;20046;-80
2023/04/18 01:10:39;;;;;;;12.55;6.65;;;7.40;99.90;;;;;;5110015;28;20305;-80
2023/04/18 01:13:12;;;;;;;12.05;7.03;;;7.40;99.90;;;;;;5110206;28;20075;-80
2023/04/18 01:15:45;;;;;;;11.55;7.05;;;7.30;99.90;;;;;;5110336;28;20054;-81
2023/04/18 01:18:12;;;;;;;14.32;6.82;;;7.30;99.90;;;;;;5093456;28;20467;-80
2023/04/18 01:20:45;;;;;;;14.20;7.60;;;7.20;99.90;;;;;;5110224;28;20046;-80
2023/04/18 01:23:11;;;;;;;13.65;7.53;;;7.30;99.90;;;;;;5110341;28;20511;-80
2023/04/18 01:25:37;;;;;;;13.65;6.80;;;7.20;99.90;;;;;;5092828;28;20040;-80
2023/04/18 01:28:03;;;;;;;;;;;7.20;99.90;;;;;;5093786;28;20062;-80
2023/04/18 01:30:29;;;;;;;15.65;8.10;;;7.10;99.90;;;;;;5109612;28;19951;-80
2023/04/18 01:32:55;;;;;;;13.50;7.30;;;7.20;99.90;;;;;;5109986;28;20078;-80
2023/04/18 01:35:20;;;;;;;14.03;6.53;;;7.10;99.90;;;;;;5092723;28;20042;-80
2023/04/18 01:37:49;;;;;;;11.83;6.27;;;7.20;99.90;;;;;;5095960;28;20323;-80
2023/04/18 01:40:15;;;;;;;14.10;6.97;;;7.10;99.90;;;;;;5113835;28;20078;-80
2023/04/18 01:42:41;;;;;;;11.65;7.03;;;7.10;99.90;;;;;;5113856;28;20082;-80
2023/04/18 01:45:07;;;;;;;15.05;6.95;;;7.10;99.90;;;;;;5096370;28;20054;-80
2023/04/18 01:47:33;;;;;;;;;;;7.10;99.90;;;;;;5080269;28;20363;-81
2023/04/18 01:49:58;;;;;;;13.35;7.85;;;7.10;99.90;;;;;;5113232;28;19916;-81
2023/04/18 01:52:25;;;;;;;12.80;6.70;;;7.00;99.90;;;;;;5113319;28;20047;-80
2023/04/18 01:54:50;;;;;;;18.85;8.18;;;7.00;99.90;;;;;;5096374;28;20043;-80
2023/04/18 01:57:16;;;;;;;11.95;6.88;;;7.00;99.90;;;;;;5113273;28;20046;-80
2023/04/18 01:59:42;;;;;;;11.77;7.10;;;7.10;99.90;;;;;;5113259;28;20050;-80
2023/04/18 02:02:07;;;;;;;13.43;7.37;;;6.90;99.90;;;;;;5113387;28;20039;-80
2023/04/18 02:04:33;;;;;;;12.07;7.32;;;6.90;99.90;;;;;;5096178;28;20086;-81
2023/04/18 02:06:59;;;;;;;14.50;7.23;;;6.90;99.90;;;;;;5112868;28;20048;-80
2023/04/18 02:09:24;;;;;;;10.40;6.40;;;6.90;99.90;;;;;;5095911;28;20052;-80
2023/04/18 02:11:50;;;;;;;11.10;6.53;;;6.90;99.90;;;;;;5112962;28;20048;-80
2023/04/18 02:14:15;;;;;;;13.47;6.13;;;6.90;99.90;;;;;;5113025;28;20277;-80
2023/04/18 02:16:41;;;;;;;12.57;7.27;;;6.90;99.90;;;;;;5095728;28;20051;-80
2023/04/18 02:19:07;;;;;;;10.40;5.90;;;6.90;99.90;;;;;;5112944;28;20039;-80
2023/04/18 02:21:33;;;;;;;11.57;6.13;;;6.90;99.90;;;;;;5095815;28;20399;-80
2023/04/18 02:23:58;;;;;;;13.13;6.07;;;7.00;99.90;;;;;;5095830;28;20047;-80
2023/04/18 02:26:24;;;;;;;9.83;6.00;;;7.00;99.90;;;;;;5095395;28;20302;-80
2023/04/18 02:28:50;;;;;;;9.85;5.30;;;7.10;99.90;;;;;;5079443;28;20058;-80
2023/04/18 02:31:15;;;;;;;8.20;5.10;;;7.10;99.90;;;;;;5112366;28;20053;-80
2023/04/18 02:33:42;;;;;;;9.32;5.10;;;7.10;99.90;;;;;;5112761;28;20123;-80
2023/04/18 02:36:08;;;;;;;11.30;5.82;;;7.10;99.90;;;;;;5112287;28;20134;-80
2023/04/18 02:38:34;;;;;;;8.82;5.22;;;7.20;99.90;;;;;;5112401;28;20522;-80
2023/04/18 02:41:00;;;;;;;11.02;5.82;;;7.20;99.90;;;;;;5095381;28;20071;-80
2023/04/18 02:43:26;;;;;;;10.07;5.18;;;7.20;99.90;;;;;;5095093;28;20040;-80
2023/04/18 02:45:51;;;;;;;7.40;4.97;;;7.30;99.90;;;;;;5112148;28;20055;-80
2023/04/18 02:48:17;;;;;;;9.57;5.30;;;7.30;99.90;;;;;;5094376;28;20036;-80
2023/04/18 02:50:43;;;;;;;8.30;4.97;;;7.30;99.90;;;;;;5095361;28;20078;-80
2023/04/18 02:53:09;;;;;;;7.10;4.60;;;7.40;99.90;;;;;;5095173;28;20298;-80
2023/04/18 02:55:36;;;;;;;9.18;4.57;;;7.40;99.90;;;;;;5111984;28;20418;-80
2023/04/18 02:58:01;;;;;;;8.90;5.22;;;7.40;99.90;;;;;;5095282;28;20132;-80
2023/04/18 03:00:27;;;;;;;11.57;4.70;;;7.40;99.90;;;;;;5111623;28;20562;-80
2023/04/18 03:02:53;;;;;;;8.32;5.43;;;7.40;99.90;;;;;;5095041;28;20088;-80
2023/04/18 03:05:20;;;;;;;10.87;4.83;;;7.40;99.90;;;;;;5111522;28;20047;-80
2023/04/18 03:07:48;;;;;;;8.82;5.10;;;7.40;99.90;;;;;;5094863;28;20308;-80
2023/04/18 03:10:15;;;;;;;7.72;4.30;;;7.40;99.90;;;;;;5111809;28;20054;-80
2023/04/18 03:12:40;;;;;;;9.13;4.45;;;7.50;99.90;;;;;;5111435;28;20126;-80
2023/04/18 03:15:06;;;;;;;8.77;4.43;;;7.40;99.90;;;;;;5094895;28;20118;-80
2023/04/18 03:17:33;;;;;;;12.13;4.68;;;7.40;99.90;;;;;;5111746;28;20047;-80
2023/04/18 03:19:58;;;;;;;9.05;4.78;;;7.40;99.90;;;;;;5111751;28;20051;-80
2023/04/18 03:22:24;;;;;;;8.07;4.43;;;7.30;99.90;;;;;;5111580;28;20111;-80
2023/04/18 03:24:50;;;;;;;9.50;4.43;;;7.30;99.90;;;;;;5094249;28;20277;-79
2023/04/18 03:27:15;;;;;;;8.98;4.47;;;7.30;99.90;;;;;;5094277;28;20289;-78
2023/04/18 03:29:41;;;;;;;10.30;4.80;;;7.30;99.90;;;;;;5077612;28;20126;-78
2023/04/18 03:32:07;;;;;;;7.27;4.63;;;7.30;99.90;;;;;;5111472;28;20047;-79
2023/04/18 03:34:32;;;;;;;8.97;5.00;;;7.30;99.90;;;;;;5093750;28;20047;-79
2023/04/18 03:36:58;;;;;;;8.27;4.55;;;7.30;99.90;;;;;;5094080;28;20043;-79
2023/04/18 03:39:24;;;;;;;8.03;4.77;;;7.20;99.90;;;;;;5093484;28;20039;-78
2023/04/18 03:41:51;;;;;;;7.83;4.87;;;7.20;99.90;;;;;;5094106;28;20285;-79
2023/04/18 03:44:16;;;;;;;8.15;4.82;;;7.30;99.90;;;;;;5111031;28;20364;-79
2023/04/18 03:46:42;;;;;;;7.40;4.45;;;7.30;99.90;;;;;;5093807;28;20498;-79
2023/04/18 03:49:08;;;;;;;10.48;5.00;;;7.20;99.90;;;;;;5111292;28;20119;-79
2023/04/18 03:51:42;;;;;;;10.90;4.83;;;7.20;99.90;;;;;;5110670;28;20036;-79
2023/04/18 03:54:08;;;;;;;10.20;4.88;;;7.20;99.90;;;;;;5110646;28;20781;-79
2023/04/18 03:56:34;;;;;;;6.93;4.22;;;7.20;99.90;;;;;;5110646;28;20150;-79
2023/04/18 03:59:00;;;;;;;7.80;4.32;;;7.20;99.90;;;;;;5110028;28;20054;-79
2023/04/18 04:01:26;;;;;;;8.77;4.97;;;7.20;99.90;;;;;;5110235;28;20039;-79
2023/04/18 04:03:52;;;;;;;7.25;4.57;;;7.20;99.90;;;;;;5110735;28;20039;-80
2023/04/18 04:06:18;;;;;;;9.68;4.97;;;7.20;99.90;;;;;;5110651;28;20407;-79
2023/04/18 04:08:43;;;;;;;9.27;4.85;;;7.20;99.90;;;;;;5109126;28;20044;-79
2023/04/18 04:11:09;;;;;;;7.30;4.60;;;7.20;99.90;;;;;;5110502;28;20062;-79
2023/04/18 04:13:35;;;;;;;8.23;4.50;;;7.20;99.90;;;;;;5093190;28;20289;-79
2023/04/18 04:16:01;;;;;;;7.38;4.18;;;7.30;99.90;;;;;;5110230;28;20177;-80
2023/04/18 04:18:30;;;;;;;9.40;4.32;;;7.30;99.90;;;;;;5076130;28;20192;-79
2023/04/18 04:20:59;;;;;;;7.95;4.15;;;7.30;99.90;;;;;;5110453;28;20040;-79
2023/04/18 04:23:25;;;;;;;7.80;4.45;;;7.30;99.90;;;;;;5109908;28;20154;-80
2023/04/18 04:25:52;;;;;;;6.78;4.13;;;7.30;99.90;;;;;;5110298;28;20043;-80
2023/04/18 04:28:22;;;;;;;8.02;4.50;;;7.40;99.90;;;;;;5110352;28;20472;-80
2023/04/18 04:30:51;;;;;;;7.40;4.35;;;7.40;99.90;;;;;;5110376;28;20081;-79
2023/04/18 04:33:27;;;;;;;8.52;5.03;;;7.40;99.90;;;;;;5091363;28;20119;-79
2023/04/18 04:35:54;;;;;;;7.30;4.32;;;7.40;99.90;;;;;;5093151;28;20104;-80
2023/04/18 04:38:21;;;;;;;8.73;4.80;;;7.40;99.90;;;;;;5109741;28;20071;-80
2023/04/18 04:40:48;;;;;;;7.22;4.55;;;7.40;99.90;;;;;;5109814;28;20040;-80
2023/04/18 04:43:15;;;;;;;7.55;4.57;;;7.40;99.90;;;;;;5093253;28;20123;-80
2023/04/18 04:45:42;;;;;;;9.70;4.85;;;7.40;99.90;;;;;;5109856;28;20070;-80
2023/04/18 04:48:08;;;;;;;10.73;4.93;;;7.40;99.90;;;;;;5110325;28;20478;-80
2023/04/18 04:50:36;;;;;;;9.57;5.00;;;7.40;99.90;;;;;;5109855;28;20491;-79
2023/04/18 04:53:02;;;;;;;9.73;4.50;;;7.40;99.90;;;;;;5109557;28;20054;-80
2023/04/18 04:55:27;;;;;;;8.98;4.75;;;7.40;99.90;;;;;;5109623;28;20130;-80
2023/04/18 04:57:54;;;;;;;9.38;5.15;;;7.40;99.90;;;;;;5092900;28;20055;-80
2023/04/18 05:00:20;;;;;;;7.10;4.45;;;7.50;99.90;;;;;;5092889;28;20048;-80
2023/04/18 05:02:54;;;;;;;8.63;4.93;;;7.40;99.90;;;;;;5109901;28;20548;-79
2023/04/18 05:05:20;;;;;;;9.77;4.93;;;7.40;99.90;;;;;;5109647;28;20036;-80
2023/04/18 05:07:46;;;;;;;10.05;5.53;;;7.40;99.90;;;;;;5109492;28;20040;-79
2023/04/18 05:10:12;;;;;;;9.88;5.88;;;7.40;99.90;;;;;;5110492;28;20035;-79
2023/04/18 05:12:37;;;;;;;10.05;5.20;;;7.50;99.90;;;;;;5114024;28;20541;-80
2023/04/18 05:15:04;;;;;;;9.87;5.50;;;7.50;99.90;;;;;;5096858;28;20047;-80
2023/04/18 05:17:29;;;;;;;13.25;5.80;;;7.50;99.90;;;;;;5113485;28;20309;-79
2023/04/18 05:19:55;;;;;;;10.60;5.73;;;7.40;99.90;;;;;;5096334;28;20032;-80
2023/04/18 05:22:21;;;;;;;8.93;5.37;;;7.40;99.90;;;;;;5113931;28;20046;-80
2023/04/18 05:24:46;;;;;;;11.75;6.07;;;7.50;99.90;;;;;;5096484;28;20163;-80
2023/04/18 05:27:15;;;;;;;11.83;5.90;;;7.50;99.90;;;;;;5096232;28;20408;-80
2023/04/18 05:29:41;;;;;;;8.57;5.45;;;7.50;99.90;;;;;;5095975;28;20169;-79
2023/04/18 05:32:07;;;;;;;10.43;5.80;;;7.50;99.90;;;;;;5096479;28;20127;-80
2023/04/18 05:34:36;;;;;;;9.45;5.40;;;7.50;99.90;;;;;;5095949;28;20046;-80
2023/04/18 05:37:01;;;;;;;9.02;5.60;;;7.60;99.90;;;;;;5096491;28;20047;-80
2023/04/18 05:39:27;;;;;;;14.23;6.25;;;7.60;99.90;;;;;;5096362;28;20036;-80
2023/04/18 05:41:53;;;;;;;11.73;5.50;;;7.60;99.90;;;;;;5113446;28;20089;-79
2023/04/18 05:44:19;;;;;;;10.83;6.47;;;7.70;99.90;;;;;;5113700;28;20372;-80
2023/04/18 05:46:45;;;;;;;;;;;7.60;99.90;;;;;;5113335;28;20499;-80
2023/04/18 05:49:11;;;;;;;11.95;6.38;;;7.70;99.90;;;;;;5096090;28;20470;-80
2023/04/18 05:51:37;;;;;;;11.48;7.07;;;7.70;99.90;;;;;;5112785;28;20032;-80
2023/04/18 05:54:03;;;;;;;12.48;6.40;;;7.70;99.90;;;;;;5095933;28;20128;-80
2023/04/18 05:56:29;;;;;;;10.32;6.25;;;7.70;99.90;;;;;;5095761;28;20043;-80
2023/04/18 05:58:54;;;;;;;10.70;5.88;;;7.80;99.90;;;;;;5096073;28;20130;-80
2023/04/18 06:01:20;;;;;;;11.07;6.07;;;7.80;99.90;;;;;;5095820;28;20051;-80
2023/04/18 06:03:46;;;;;;;12.88;6.22;;;7.90;99.90;;;;;;5078527;28;20377;-80
2023/04/18 06:06:12;;;;;;;10.43;5.10;;;8.00;99.90;;;;;;5095849;28;20082;-80
2023/04/18 06:08:39;;;;;;;10.45;5.95;;;8.10;99.90;;;;;;5112664;28;20036;-80
2023/04/18 06:11:04;;;;;;;;;;;8.20;99.90;;;;;;5113080;28;20112;-80
2023/04/18 06:13:30;;;;;;;13.02;6.50;;;8.30;99.90;;;;;;5112699;28;19919;-80
2023/04/18 06:15:56;;;;;;;11.48;5.85;;;8.50;99.90;;;;;;5112547;28;20100;-80
2023/04/18 06:18:22;;;;;;;11.40;6.25;;;8.70;99.90;;;;;;5112687;28;20487;-80
2023/04/18 06:20:48;;;;;;;10.90;6.78;;;8.70;99.90;;;;;;5095754;28;20039;-80
2023/04/18 06:23:14;;;;;;;9.95;6.55;;;8.80;99.90;;;;;;5111410;28;20123;-80
2023/04/18 06:25:43;;;;;;;14.65;6.55;;;8.90;99.90;;;;;;5112461;28;20395;-80
2023/04/18 06:28:08;;;;;;;9.23;5.57;;;9.10;99.90;;;;;;5095197;28;20035;-80
2023/04/18 06:30:34;;;;;;;10.25;5.85;;;9.20;99.90;;;;;;5112288;28;20057;-80
2023/04/18 06:33:00;;;;;;;10.10;5.70;;;9.20;99.90;;;;;;5112177;28;20035;-80
2023/04/18 06:35:27;;;;;;;8.68;5.70;;;9.30;99.90;;;;;;5112159;28;20047;-80
2023/04/18 06:37:53;;;;;;;12.00;6.18;;;9.40;99.90;;;;;;5095471;28;20530;-79
2023/04/18 06:40:19;;;;;;;11.00;5.53;;;9.40;99.90;;;;;;5112332;28;20200;-79
2023/04/18 06:42:45;;;;;;;11.43;5.60;;;9.70;99.90;;;;;;5095361;28;20099;-79
2023/04/18 06:45:11;;;;;;;11.95;6.32;;;10.10;99.90;;;;;;5112235;28;20277;-80
2023/04/18 06:47:37;;;;;;;9.55;5.53;;;10.30;99.90;;;;;;5111764;28;20040;-79
2023/04/18 06:50:04;;;;;;;8.13;5.20;;;10.60;99.90;;;;;;5111930;28;20028;-79
2023/04/18 06:52:34;;;;;;;11.23;5.80;;;10.60;99.90;;;;;;5111648;28;20040;-79
2023/04/18 06:54:59;;;;;;;8.75;5.10;;;10.90;99.90;;;;;;5111904;28;20048;-79
2023/04/18 06:57:28;;;;;;;7.47;4.67;;;11.10;99.90;;;;;;5112782;28;20050;-79
2023/04/18 06:59:54;;;;;;;8.25;5.38;;;11.20;99.90;;;;;;5112717;28;20313;-80
2023/04/18 07:02:20;;;;;;;9.52;4.95;;;11.00;99.90;;;;;;5113505;28;20439;-79
2023/04/18 07:04:46;;;;;;;7.63;4.68;;;11.40;99.90;;;;;;5112708;28;20054;-80
2023/04/18 07:07:11;;;;;;;7.78;5.05;;;11.60;99.90;;;;;;5079570;28;20122;-80
2023/04/18 07:09:37;;;;;;;9.57;4.80;;;11.90;99.90;;;;;;5113171;28;20448;-80
2023/04/18 07:12:03;;;;;;;8.70;5.38;;;12.20;99.90;;;;;;5095987;28;20044;-79
2023/04/18 07:14:28;;;;;;;10.35;6.13;;;12.20;99.90;;;;;;5112091;28;20036;-79
2023/04/18 07:16:56;;;;;;;9.73;5.20;;;12.10;99.90;;;;;;5095160;28;20364;-80
2023/04/18 07:19:22;;;;;;;11.15;5.28;;;12.30;99.90;;;;;;5112329;28;20075;-80
2023/04/18 07:21:47;;;;;;;8.98;5.32;;;12.90;99.90;;;;;;5095184;28;20085;-80
2023/04/18 07:24:13;;;;;;;10.05;5.72;;;12.50;99.90;;;;;;5078653;28;20050;-80
2023/04/18 07:26:39;;;;;;;8.93;5.50;;;12.50;99.90;;;;;;5111620;28;20136;-79
2023/04/18 07:29:05;;;;;;;8.18;5.20;;;12.40;99.90;;;;;;5111761;28;20046;-79
2023/04/18 07:31:31;;;;;;;8.40;5.07;;;12.60;99.90;;;;;;5111962;28;20039;-79
2023/04/18 07:33:57;;;;;;;10.15;5.25;;;12.40;99.90;;;;;;5077616;28;20040;-79
2023/04/18 07:36:23;;;;;;;9.98;5.50;;;12.40;99.90;;;;;;5111730;28;20093;-80
2023/04/18 07:38:50;;;;;;;8.80;5.53;;;12.50;99.90;;;;;;5111998;28;20075;-80
2023/04/18 07:41:16;;;;;;;9.10;5.82;;;12.80;99.90;;;;;;5112250;28;20059;-80
2023/04/18 07:43:43;;;;;;;11.57;5.93;;;12.90;99.90;;;;;;5078893;28;20451;-80
2023/04/18 07:46:09;;;;;;;10.02;5.30;;;13.20;99.90;;;;;;5112126;28;20044;-80
2023/04/18 07:48:35;;;;;;;8.32;5.97;;;13.10;99.90;;;;;;5111857;28;20036;-80
2023/04/18 07:51:01;;;;;;;10.63;5.25;;;13.10;99.90;;;;;;5112179;28;20372;-80
2023/04/18 07:53:27;;;;;;;;;;;13.10;99.90;;;;;;5112176;28;20074;-80
2023/04/18 07:55:53;;;;;;;8.77;5.70;;;13.20;99.90;;;;;;5094820;28;20439;-80
2023/04/18 07:58:19;;;;;;;14.30;6.15;;;13.20;99.90;;;;;;5111942;28;20122;-80
2023/04/18 08:00:45;;;;;;;10.77;6.30;;;13.70;99.90;;;;;;5112167;28;20048;-81
2023/04/18 08:03:11;;;;;;;10.10;6.50;;;13.80;99.90;;;;;;5094954;28;20036;-80
2023/04/18 08:05:38;;;;;;;;;;;13.60;99.90;;;;;;5112037;28;20112;-80
2023/04/18 08:08:06;;;;;;;11.30;6.00;;;13.70;99.90;;;;;;5095239;28;20385;-80
2023/04/18 08:10:33;;;;;;;8.90;5.78;;;13.90;99.90;;;;;;5094566;28;20040;-80
2023/04/18 08:12:59;;;;;;;;;;;14.00;99.90;;;;;;5112466;28;20506;-80
2023/04/18 08:15:26;;;;;;;9.68;6.53;;;14.20;99.40;;;;;;5094804;28;19916;-81
2023/04/18 08:17:52;;;;;;;9.25;5.70;;;14.10;99.80;;;;;;5095040;28;20098;-80
2023/04/18 08:20:18;;;;;;;10.77;6.15;;;14.50;99.60;;;;;;5095431;28;20429;-81
2023/04/18 08:22:44;;;;;;;9.13;5.82;;;14.40;98.60;;;;;;5095619;28;20095;-80
2023/04/18 08:25:10;;;;;;;10.88;6.45;;;14.50;99.00;;;;;;5096707;28;20176;-81
2023/04/18 08:27:36;;;;;;;9.70;5.95;;;14.70;98.50;;;;;;5096400;28;20168;-81
2023/04/18 08:30:03;;;;;;;10.68;5.35;;;14.50;98.30;;;;;;5079757;28;20512;-80
2023/04/18 08:32:32;;;;;;;9.52;6.13;;;14.60;97.60;;;;;;5095435;28;20454;-81
2023/04/18 08:34:58;;;;;;;9.73;5.53;;;14.50;97.40;;;;;;5111927;28;20043;-80
2023/04/18 08:37:24;;;;;;;9.20;5.70;;;14.40;98.00;;;;;;5112076;28;20043;-80
2023/04/18 08:39:49;;;;;;;9.75;5.75;;;14.50;97.80;;;;;;5096119;28;20376;-80
2023/04/18 08:42:18;;;;;;;9.27;5.43;;;14.60;97.90;;;;;;5114371;28;20075;-80
2023/04/18 08:44:47;;;;;;;11.15;5.93;;;14.80;97.30;;;;;;5096122;28;20049;-80
2023/04/18 08:47:14;;;;;;;9.27;5.38;;;15.00;96.60;;;;;;5114057;28;20039;-80
2023/04/18 08:49:39;;;;;;;;;;;15.30;97.00;;;;;;5114253;28;20106;-80
2023/04/18 08:52:12;;;;;;;9.65;5.78;;;15.20;96.40;;;;;;5113958;28;20391;-80
2023/04/18 08:54:43;;;;;;;10.70;6.05;;;15.30;96.70;;;;;;5116177;28;20056;-80
2023/04/18 08:57:11;;;;;;;8.60;5.82;;;15.10;96.60;;;;;;5114813;28;20035;-80
2023/04/18 08:59:38;;;;;;;7.63;5.68;;;15.10;96.30;;;;;;5098988;28;20079;-80
2023/04/18 09:02:07;;;;;;;8.80;5.70;;;15.10;96.60;;;;;;5116062;28;20046;-80
2023/04/18 09:04:43;;;;;;;8.98;5.90;;;15.30;96.80;;;;;;5099201;28;20102;-80
2023/04/18 09:07:16;;;;;;;11.77;6.03;;;15.40;96.40;;;;;;5115113;28;20128;-80
2023/04/18 09:09:50;;;;;;;8.93;5.85;;;15.30;96.80;;;;;;5115193;28;20470;-80
2023/04/18 09:12:21;;;;;;;9.02;5.97;;;15.40;96.80;;;;;;5114513;28;20503;-80
2023/04/18 09:14:57;;;;;;;12.48;6.45;;;15.40;96.80;;;;;;5096217;28;20032;-80
2023/04/18 09:17:35;;;;;;;9.35;5.82;;;15.40;96.30;;;;;;5097861;28;20099;-80
2023/04/18 09:20:04;;;;;;;9.55;6.05;;;15.50;96.70;;;;;;5113932;28;20043;-80
2023/04/18 09:23:03;;;;;;;10.80;6.25;;;15.90;96.30;;;;;;5114613;28;20100;-80
2023/04/18 09:25:36;;;;;;;8.68;5.80;;;15.60;95.60;;;;;;5081951;28;20563;-80
2023/04/18 09:28:25;;;;;;;10.40;5.90;;;15.70;95.70;;;;;;5114854;28;20047;-80
2023/04/18 09:30:52;;;;;;;9.23;5.65;;;15.50;95.70;;;;;;5113310;28;20059;-80
2023/04/18 09:33:28;;;;;;;10.18;5.88;;;15.80;96.10;;;;;;5113974;28;20488;-80
2023/04/18 09:36:18;;;;;;;9.13;5.80;;;15.80;95.90;;;;;;5097715;28;20044;-80
2023/04/18 09:38:43;;;;;;;9.45;6.00;;;16.40;95.70;;;;;;5114736;28;20047;-80
2023/04/18 09:41:10;;;;;;;9.48;6.25;;;16.60;95.40;;;;;;5114209;28;20192;-80
2023/04/18 09:43:37;;;;;;;11.27;6.47;;;16.50;95.40;;;;;;5096771;28;20515;-80
2023/04/18 09:46:04;;;;;;;9.35;5.88;;;16.70;94.80;;;;;;5096287;28;20044;-80
2023/04/18 09:48:29;;;;;;;;;;;17.10;95.30;;;;;;5113915;28;20054;-80
2023/04/18 09:50:57;;;;;;;8.55;5.53;;;16.90;95.30;;;;;;5095469;28;19920;-80
2023/04/18 09:53:24;;;;;;;10.43;5.72;;;17.00;95.50;;;;;;5112645;28;20063;-81
2023/04/18 09:55:53;;;;;;;7.60;5.63;;;17.20;94.80;;;;;;5095006;28;20039;-80
2023/04/18 09:58:21;;;;;;;8.10;5.78;;;17.10;95.00;;;;;;5113989;28;20036;-80
2023/04/18 10:00:50;;;;;;;7.90;5.78;;;17.40;95.10;;;;;;5098685;28;20048;-80
2023/04/18 10:03:17;;;;;;;9.80;5.57;;;17.30;94.70;;;;;;5115233;28;20496;-80
2023/04/18 10:05:43;;;;;;;11.32;5.88;;;17.40;94.80;;;;;;5114793;28;20092;-80
2023/04/18 10:08:09;;;;;;;;;;;17.50;94.60;;;;;;5115299;28;20038;-80
2023/04/18 10:10:35;;;;;;;9.80;5.72;;;17.50;94.50;;;;;;5098159;28;20009;-80
2023/04/18 10:13:02;;;;;;;9.00;5.97;;;17.80;94.60;;;;;;5115033;28;20051;-80
2023/04/18 10:15:29;;;;;;;7.28;5.13;;;17.70;94.80;;;;;;5098176;28;20459;-80
2023/04/18 10:18:01;;;;;;;10.30;5.20;;;17.90;94.60;;;;;;5114989;28;20051;-80
2023/04/18 10:20:31;;;;;;;8.02;5.07;;;17.90;94.60;;;;;;5114815;28;20040;-80
2023/04/18 10:22:58;;;;;;;10.27;5.78;;;18.50;94.90;;;;;;5114646;28;20513;-80
2023/04/18 10:25:33;;;;;;;9.30;5.32;;;18.60;94.50;;;;;;5114432;28;20043;-79
2023/04/18 10:28:00;;;;;;;6.10;4.18;;;18.10;94.50;;;;;;5114766;28;20130;-80
2023/04/18 10:30:45;;;;;;;8.00;4.90;;;18.00;94.70;;;;;;5114486;28;20122;-79
2023/04/18 10:33:48;;;;;;;8.15;5.43;;;17.90;95.30;;;;;;5114594;28;20112;-79
2023/04/18 10:36:19;;;;;;;8.23;4.78;;;18.40;95.20;;;;;;5035897;28;20043;-80
2023/04/18 10:38:58;;;;;;;10.25;4.85;;;18.60;94.30;;;;;;5083958;28;20051;-80
2023/04/18 10:41:33;;;;;;;7.50;4.18;;;18.60;95.50;;;;;;5097190;28;20077;-80
2023/04/18 10:44:13;;;;;;;7.47;5.00;;;18.90;95.30;;;;;;5114279;28;20040;-80
2023/04/18 10:46:39;;;;;;;7.80;4.75;;;18.80;94.70;;;;;;5096961;28;20042;-79
2023/04/18 10:49:27;;;;;;;5.30;4.20;;;18.20;94.70;;;;;;5097031;28;20112;-80
2023/04/18 10:51:58;;;;;;;5.82;3.97;;;18.10;95.30;;;;;;5114010;28;20492;-79
2023/04/18 10:54:46;;;;;;;8.85;4.63;;;18.20;95.30;;;;;;5113483;28;20057;-79
2023/04/18 10:57:12;;;;;;;7.70;4.63;;;18.70;95.60;;;;;;5097051;28;20368;-80
2023/04/18 10:59:40;;;;;;;;;;;18.80;94.20;;;;;;5097314;28;20043;-80
2023/04/18 11:02:27;;;;;;;;;;;18.70;95.00;;;;;;5114535;28;20386;-79
2023/04/18 11:05:03;;;;;;;6.85;4.60;;;18.30;95.20;;;;;;5113542;28;20051;-79
2023/04/18 11:07:47;;;;;;;6.67;4.50;;;18.70;95.00;;;;;;5096365;28;20036;-79
2023/04/18 11:10:19;;;;;;;7.38;4.25;;;18.60;94.80;;;;;;5113379;28;20036;-79
2023/04/18 11:12:46;;;;;;;6.88;4.13;;;18.80;95.50;;;;;;5113495;28;20078;-79
2023/04/18 11:15:21;;;;;;;8.77;4.60;;;18.80;95.20;;;;;;5079390;28;20131;-79
2023/04/18 11:18:01;;;;;;;6.53;4.28;;;19.00;95.00;;;;;;5113406;28;20527;-79
2023/04/18 11:20:35;;;;;;;6.95;4.72;;;18.40;95.60;;;;;;5112456;28;20112;-79
2023/04/18 11:23:01;;;;;;;7.30;4.88;;;18.50;95.30;;;;;;5079496;28;20127;-79
2023/04/18 11:25:35;;;;;;;7.50;4.90;;;18.30;95.50;;;;;;5112570;28;20126;-79
2023/04/18 11:28:02;;;;;;;8.27;4.97;;;18.50;95.30;;;;;;5095671;28;20047;-79
2023/04/18 11:30:36;;;;;;;7.20;4.63;;;18.70;95.90;;;;;;5078410;28;20509;-79
2023/04/18 11:33:10;;;;;;;8.45;4.90;;;19.00;95.10;;;;;;5111883;28;20040;-80
2023/04/18 11:35:45;;;;;;;6.53;5.05;;;19.00;95.50;;;;;;5095282;28;20054;-80
2023/04/18 11:38:13;;;;;;;7.70;4.57;;;19.00;95.50;;;;;;5095384;28;20130;-80
2023/04/18 11:40:47;;;;;;;6.05;4.00;;;18.90;95.00;;;;;;5112397;28;20566;-80
2023/04/18 11:43:22;;;;;;;5.50;3.95;;;18.60;95.40;;;;;;5111678;28;20152;-80
2023/04/18 11:45:52;;;;;;;5.10;3.70;;;18.20;95.30;;;;;;5111542;28;20495;-80
2023/04/18 11:48:18;;;;;;;5.05;3.67;;;18.50;95.40;;;;;;5094457;28;20073;-80
2023/04/18 11:50:43;;;;;;;5.72;3.90;;;18.70;95.40;;;;;;5111484;28;20031;-79
2023/04/18 11:53:09;;;;;;;5.28;3.92;;;18.80;95.30;;;;;;5110739;28;20051;-80
2023/04/18 11:55:35;;;;;;;5.47;3.90;;;19.00;95.00;;;;;;5093984;28;20051;-79
2023/04/18 11:58:02;;;;;;;5.32;3.97;;;19.10;95.30;;;;;;5110394;28;20040;-79
2023/04/18 12:00:38;;;;;;;6.72;4.30;;;19.20;95.60;;;;;;5110874;28;20108;-79
2023/04/18 12:03:09;;;;;;;3.78;2.92;;;19.30;94.70;;;;;;5110126;28;20353;-79
2023/04/18 12:05:36;;;;;;;4.55;3.17;;;19.10;94.50;;;;;;5110509;28;20039;-79
2023/04/18 12:08:05;;;;;;;5.90;3.10;;;19.00;95.30;;;;;;5110020;28;20046;-79
2023/04/18 12:10:31;;;;;;;4.63;3.13;;;19.20;95.20;;;;;;5110229;28;20042;-79
2023/04/18 12:12:58;;;;;;;4.78;3.00;;;19.10;94.60;;;;;;5093100;28;20435;-79
2023/04/18 12:15:26;;;;;;;4.38;2.70;;;19.40;94.50;;;;;;5093406;28;20075;-79
2023/04/18 12:17:57;;;;;;;4.60;2.60;;;19.30;94.40;;;;;;5110209;28;20487;-79
2023/04/18 12:20:26;;;;;;;2.97;2.35;;;19.70;94.60;;;;;;5109400;28;20043;-79
2023/04/18 12:22:53;;;;;;;4.65;2.28;;;19.60;94.40;;;;;;5109857;28;20539;-79
2023/04/18 12:25:23;;;;;;;3.10;2.40;;;19.30;95.00;;;;;;5093434;28;20119;-79
2023/04/18 12:27:53;;;;;;;3.65;2.40;;;19.80;94.90;;;;;;5110055;28;20051;-79
2023/04/18 12:30:21;;;;;;;3.35;2.38;;;20.10;94.20;;;;;;5110194;28;20455;-78
2023/04/18 12:32:48;;;;;;;8.85;3.03;;;19.80;94.10;;;;;;5109827;28;20040;-79
2023/04/18 12:35:15;;;;;;;3.95;2.90;;;19.10;93.90;;;;;;5092907;28;20040;-79
2023/04/18 12:37:41;;;;;;;4.80;2.92;;;19.10;94.50;;;;;;5093060;28;20146;-79
2023/04/18 12:40:07;;;;;;;;;;;19.10;94.10;;;;;;5092832;28;20050;-79
2023/04/18 12:42:33;;;;;;;4.65;3.03;;;19.20;94.50;;;;;;5092932;28;20002;-79
2023/04/18 12:45:09;;;;;;;3.00;2.22;;;19.30;94.40;;;;;;5058858;28;20530;-79
2023/04/18 12:47:38;;;;;;;6.18;2.80;;;19.20;94.60;;;;;;5092946;28;20418;-79
2023/04/18 12:50:06;;;;;;;3.88;2.40;;;18.10;95.20;;;;;;5092409;28;20040;-79
2023/04/18 12:52:31;;;;;;;3.60;2.60;;;17.80;95.30;;;;;;5109469;28;20047;-79
2023/04/18 12:54:57;;;;;;;6.68;2.88;;;17.90;95.20;;;;;;5109236;28;20499;-79
2023/04/18 12:57:24;;;;;;;6.60;3.20;;;18.30;95.30;;;;;;5092756;28;20039;-79